Time;durP1;ratioP1;P1;durP2;ratioP2;P2;SDS_P1;SDS_P2;PMS_P1;PMS_P2;Temp;Humidity;BMP_temperature;BMP_pressure;BME280_temperature;BME280_humidity;BME280_pressure;Samples;Min_cycle;Max_cycle;Signal;HPM_P1;HPM_P2
2021/03/21 00:01:29;;;;;;;31.40;28.10;;;5.70;99.90;;;;;;5123242;27;20449;-74
2021/03/21 00:03:56;;;;;;;33.57;29.20;;;5.70;99.90;;;;;;5118765;27;20468;-73
2021/03/21 00:06:22;;;;;;;32.00;28.60;;;5.80;99.90;;;;;;5123987;27;20482;-75
2021/03/21 00:08:49;;;;;;;33.10;29.60;;;5.70;99.90;;;;;;5121381;27;20540;-75
2021/03/21 00:11:18;;;;;;;31.93;28.17;;;5.70;99.90;;;;;;5116825;27;20546;-73
2021/03/21 00:13:44;;;;;;;31.40;27.27;;;5.70;99.90;;;;;;5128114;27;20798;-74
2021/03/21 00:16:12;;;;;;;29.80;26.40;;;5.50;99.90;;;;;;5119221;27;20517;-76
2021/03/21 00:18:41;;;;;;;32.73;26.20;;;5.50;99.90;;;;;;5125115;27;20467;-75
2021/03/21 00:21:11;;;;;;;27.40;23.47;;;5.60;99.90;;;;;;5114906;27;20478;-74
2021/03/21 00:23:38;;;;;;;32.30;26.60;;;5.50;99.90;;;;;;5121516;27;20505;-73
2021/03/21 00:26:06;;;;;;;32.47;26.77;;;5.60;99.90;;;;;;5121559;27;20577;-74
2021/03/21 00:28:36;;;;;;;30.90;27.30;;;5.50;99.90;;;;;;5121010;27;20857;-75
2021/03/21 00:31:04;;;;;;;29.73;26.30;;;5.40;99.90;;;;;;5121949;27;20543;-76
2021/03/21 00:33:34;;;;;;;31.87;27.33;;;5.40;99.90;;;;;;5124147;27;20463;-73
2021/03/21 00:36:02;;;;;;;32.67;27.70;;;5.40;99.90;;;;;;5120324;27;20459;-77
2021/03/21 00:38:31;;;;;;;31.50;27.13;;;5.40;99.90;;;;;;5117061;27;20484;-74
2021/03/21 00:40:59;;;;;;;33.83;27.00;;;5.40;99.90;;;;;;5122444;27;20462;-76
2021/03/21 00:43:26;;;;;;;33.80;26.87;;;5.40;99.90;;;;;;5123505;27;20449;-77
2021/03/21 00:45:53;;;;;;;39.33;27.97;;;5.40;99.90;;;;;;5120627;27;20543;-75
2021/03/21 00:48:23;;;;;;;33.23;26.70;;;5.40;99.90;;;;;;5121806;27;20452;-77
2021/03/21 00:50:50;;;;;;;36.57;26.70;;;5.30;99.90;;;;;;5117214;27;20479;-76
2021/03/21 00:53:16;;;;;;;31.77;25.90;;;5.30;99.90;;;;;;5117426;27;20532;-74
2021/03/21 00:55:43;;;;;;;37.70;28.30;;;5.30;99.90;;;;;;5118368;27;20456;-77
2021/03/21 00:58:10;;;;;;;31.03;25.27;;;5.30;99.90;;;;;;5124273;27;20967;-75
2021/03/21 01:00:38;;;;;;;32.07;25.27;;;5.20;99.90;;;;;;5120192;27;20544;-74
2021/03/21 01:03:07;;;;;;;33.53;25.40;;;5.30;99.90;;;;;;5118588;27;20552;-73
2021/03/21 01:05:37;;;;;;;28.83;24.00;;;5.30;99.90;;;;;;5125158;27;20543;-77
2021/03/21 01:08:05;;;;;;;29.80;23.77;;;5.30;99.90;;;;;;5113558;27;20497;-75
2021/03/21 01:10:35;;;;;;;30.00;26.17;;;5.30;99.90;;;;;;5116421;27;20920;-73
2021/03/21 01:13:03;;;;;;;31.50;25.57;;;5.30;99.90;;;;;;5120576;27;20885;-72
2021/03/21 01:15:30;;;;;;;33.90;25.10;;;5.30;99.90;;;;;;5123478;27;21010;-74
2021/03/21 01:17:58;;;;;;;36.70;27.93;;;5.20;99.90;;;;;;5120724;27;20463;-72
2021/03/21 01:20:27;;;;;;;34.67;28.40;;;5.10;99.90;;;;;;5118513;27;20974;-73
2021/03/21 01:22:54;;;;;;;35.43;30.27;;;5.10;99.90;;;;;;5118045;27;20967;-72
2021/03/21 01:25:22;;;;;;;34.97;30.30;;;5.20;99.90;;;;;;5121231;27;20468;-73
2021/03/21 01:27:49;;;;;;;36.83;31.70;;;5.10;99.90;;;;;;5113442;27;20967;-73
2021/03/21 01:30:18;;;;;;;41.97;33.60;;;5.00;99.90;;;;;;5121310;27;20491;-74
2021/03/21 01:32:45;;;;;;;35.70;31.73;;;5.00;99.90;;;;;;5115722;27;20522;-75
2021/03/21 01:35:14;;;;;;;40.30;33.47;;;5.10;99.90;;;;;;5117265;27;20448;-73
2021/03/21 01:37:41;;;;;;;35.63;31.97;;;5.20;99.90;;;;;;5118318;27;20513;-72
2021/03/21 01:40:11;;;;;;;34.20;30.47;;;5.20;99.90;;;;;;5125823;27;20484;-74
2021/03/21 01:42:40;;;;;;;35.90;32.07;;;5.20;99.90;;;;;;5118146;27;20817;-73
2021/03/21 01:45:29;;;;;;;34.73;31.10;;;5.20;99.90;;;;;;5119148;27;20532;-72
2021/03/21 01:47:57;;;;;;;32.90;29.40;;;5.20;99.90;;;;;;5114862;27;20461;-74
2021/03/21 01:50:29;;;;;;;33.93;30.33;;;5.20;99.90;;;;;;5115417;27;20477;-74
2021/03/21 01:52:57;;;;;;;36.53;29.57;;;5.20;99.90;;;;;;5120810;27;20457;-72
2021/03/21 01:55:24;;;;;;;32.53;29.13;;;5.20;99.90;;;;;;5117156;27;20469;-72
2021/03/21 01:57:52;;;;;;;31.17;28.10;;;5.20;99.90;;;;;;5120351;27;20465;-73
2021/03/21 02:00:21;;;;;;;29.67;26.70;;;5.20;99.90;;;;;;5121178;27;20460;-73
2021/03/21 02:02:48;;;;;;;34.40;27.57;;;5.20;99.90;;;;;;5117667;27;20963;-73
2021/03/21 02:05:15;;;;;;;32.23;28.83;;;5.20;99.90;;;;;;5118603;27;20463;-74
2021/03/21 02:08:09;;;;;;;32.40;28.60;;;5.10;99.90;;;;;;5113542;27;20568;-73
2021/03/21 02:10:44;;;;;;;30.83;27.53;;;5.00;99.90;;;;;;5110545;27;20532;-75
2021/03/21 02:13:20;;;;;;;32.60;27.57;;;5.10;99.90;;;;;;5117498;27;20851;-74
2021/03/21 02:15:54;;;;;;;29.63;26.63;;;5.20;99.90;;;;;;5117811;27;20543;-74
2021/03/21 02:18:29;;;;;;;33.83;28.20;;;5.20;99.90;;;;;;5118829;27;20471;-75
2021/03/21 02:21:12;;;;;;;32.77;29.40;;;5.10;99.90;;;;;;5119668;27;20464;-73
2021/03/21 02:24:02;;;;;;;29.17;26.13;;;5.20;99.90;;;;;;5117697;27;20971;-76
2021/03/21 02:27:09;;;;;;;33.70;30.30;;;5.10;99.90;;;;;;5066623;27;20468;-72
2021/03/21 02:29:44;;;;;;;32.93;29.47;;;5.20;99.90;;;;;;5101929;27;20483;-74
2021/03/21 02:32:16;;;;;;;28.00;25.30;;;5.20;99.90;;;;;;5120983;27;20483;-75
2021/03/21 02:34:51;;;;;;;32.23;28.37;;;5.10;99.90;;;;;;5116524;27;20458;-75
2021/03/21 02:37:26;;;;;;;32.93;29.30;;;5.00;99.90;;;;;;5118143;27;20460;-74
2021/03/21 02:40:00;;;;;;;35.63;31.00;;;5.00;99.90;;;;;;5118091;27;20494;-75
2021/03/21 02:42:31;;;;;;;35.73;31.77;;;5.00;99.90;;;;;;5123279;27;20468;-72
2021/03/21 02:45:04;;;;;;;33.67;30.27;;;5.00;99.90;;;;;;5124090;27;20516;-72
2021/03/21 02:47:31;;;;;;;35.53;31.23;;;5.00;99.90;;;;;;5117403;27;20548;-74
2021/03/21 02:50:00;;;;;;;38.40;31.73;;;5.10;99.90;;;;;;5120811;27;20571;-74
2021/03/21 02:52:34;;;;;;;35.57;31.60;;;5.10;99.90;;;;;;5116994;27;20517;-73
2021/03/21 02:55:05;;;;;;;47.40;31.03;;;5.10;99.90;;;;;;5115945;27;20453;-74
2021/03/21 02:57:38;;;;;;;39.03;31.37;;;5.10;99.90;;;;;;5115158;27;20502;-74
2021/03/21 03:00:07;;;;;;;37.50;29.70;;;5.10;99.90;;;;;;5117047;27;20461;-75
2021/03/21 03:02:38;;;;;;;38.27;31.30;;;5.00;99.90;;;;;;5118820;27;20535;-73
2021/03/21 03:05:12;;;;;;;41.83;33.10;;;5.10;99.90;;;;;;5110298;27;20533;-73
2021/03/21 03:07:42;;;;;;;37.67;32.70;;;5.10;99.90;;;;;;5120624;27;20575;-73
2021/03/21 03:10:15;;;;;;;44.87;31.57;;;5.10;99.90;;;;;;5123823;27;20502;-71
2021/03/21 03:12:49;;;;;;;40.17;30.70;;;5.00;99.90;;;;;;5117967;27;20891;-71
2021/03/21 03:15:22;;;;;;;38.43;31.00;;;5.10;99.90;;;;;;5117215;27;20465;-73
2021/03/21 03:17:58;;;;;;;37.30;30.73;;;5.20;99.90;;;;;;5118447;27;20453;-72
2021/03/21 03:20:34;;;;;;;44.40;32.30;;;5.10;99.90;;;;;;5115476;27;20479;-75
2021/03/21 03:23:07;;;;;;;41.63;31.00;;;5.20;99.90;;;;;;5116426;27;20506;-73
2021/03/21 03:25:40;;;;;;;44.30;33.40;;;5.20;99.90;;;;;;5121468;27;20461;-73
2021/03/21 03:28:12;;;;;;;41.77;33.70;;;5.30;99.90;;;;;;5119969;27;20463;-75
2021/03/21 03:30:50;;;;;;;35.57;31.67;;;5.10;99.90;;;;;;5119387;28;20536;-74
2021/03/21 03:33:17;;;;;;;38.47;31.53;;;5.10;99.90;;;;;;5122343;27;20462;-72
2021/03/21 03:35:44;;;;;;;44.97;31.00;;;5.10;99.90;;;;;;5118043;28;20548;-75
2021/03/21 03:38:12;;;;;;;38.87;29.73;;;5.20;99.90;;;;;;5115931;28;20468;-76
2021/03/21 03:40:39;;;;;;;41.37;31.07;;;5.20;99.90;;;;;;5123740;28;20457;-73
2021/03/21 03:43:19;;;;;;;36.10;30.43;;;5.10;99.90;;;;;;5116574;28;20468;-72
2021/03/21 03:45:53;;;;;;;41.80;31.53;;;5.10;99.90;;;;;;5115658;28;20475;-73
2021/03/21 03:48:36;;;;;;;40.63;31.23;;;5.10;99.90;;;;;;5120430;28;20460;-75
2021/03/21 03:51:11;;;;;;;42.43;33.80;;;5.10;99.90;;;;;;5121723;28;20500;-76
2021/03/21 03:53:53;;;;;;;41.47;32.40;;;5.10;99.90;;;;;;5115153;28;20544;-75
2021/03/21 03:56:22;;;;;;;40.00;31.00;;;5.10;99.90;;;;;;5113572;28;20820;-74
2021/03/21 03:59:01;;;;;;;37.80;30.60;;;5.10;99.90;;;;;;5118808;28;20978;-73
2021/03/21 04:01:35;;;;;;;46.87;33.47;;;5.10;99.90;;;;;;5108228;28;20829;-76
2021/03/21 04:04:14;;;;;;;40.07;30.53;;;5.10;99.90;;;;;;5112296;28;20488;-74
2021/03/21 04:06:46;;;;;;;41.00;31.50;;;5.00;99.90;;;;;;5113491;28;20494;-73
2021/03/21 04:09:19;;;;;;;41.27;31.57;;;5.00;99.90;;;;;;5121735;28;20822;-72
2021/03/21 04:11:50;;;;;;;46.90;30.97;;;5.00;99.90;;;;;;5123142;28;20444;-73
2021/03/21 04:14:22;;;;;;;41.27;30.70;;;5.00;99.90;;;;;;5116061;28;20466;-76
2021/03/21 04:16:53;;;;;;;43.80;32.03;;;5.00;99.90;;;;;;5117517;28;20551;-75
2021/03/21 04:19:26;;;;;;;47.53;33.07;;;5.00;99.90;;;;;;5112922;28;20817;-75
2021/03/21 04:21:58;;;;;;;48.50;32.43;;;5.00;99.90;;;;;;5116725;28;20464;-74
2021/03/21 04:24:30;;;;;;;41.67;31.87;;;5.10;99.90;;;;;;5116971;28;20862;-76
2021/03/21 04:27:01;;;;;;;43.33;31.90;;;5.10;99.90;;;;;;5119574;28;20560;-74
2021/03/21 04:29:34;;;;;;;43.13;31.33;;;5.20;99.90;;;;;;5119250;28;20452;-74
2021/03/21 04:32:08;;;;;;;45.40;31.20;;;5.10;99.90;;;;;;5112336;28;20809;-75
2021/03/21 04:34:37;;;;;;;39.27;28.43;;;5.10;99.90;;;;;;5121112;28;20526;-73
2021/03/21 04:37:05;;;;;;;41.40;29.97;;;5.20;99.90;;;;;;5121099;28;20510;-76
2021/03/21 04:39:34;;;;;;;43.60;32.87;;;5.10;99.90;;;;;;5123124;28;20452;-75
2021/03/21 04:42:08;;;;;;;46.33;34.17;;;5.10;99.90;;;;;;5119995;28;20466;-73
2021/03/21 04:44:39;;;;;;;44.23;31.30;;;5.10;99.90;;;;;;5117064;28;20867;-75
2021/03/21 04:47:10;;;;;;;47.33;34.47;;;5.10;99.90;;;;;;5112941;27;20468;-75
2021/03/21 04:49:37;;;;;;;59.90;35.37;;;5.10;99.90;;;;;;5111549;27;20628;-76
2021/03/21 04:52:12;;;;;;;55.07;35.27;;;5.10;99.90;;;;;;5116730;27;20460;-74
2021/03/21 04:54:40;;;;;;;57.20;37.70;;;5.20;99.90;;;;;;5122832;27;20486;-74
2021/03/21 04:57:19;;;;;;;65.30;38.67;;;5.20;99.90;;;;;;5125852;27;20464;-74
2021/03/21 04:59:46;;;;;;;65.13;38.77;;;5.10;99.90;;;;;;5118475;27;20457;-74
2021/03/21 05:02:17;;;;;;;63.30;39.20;;;5.20;99.90;;;;;;5119827;27;20456;-73
2021/03/21 05:04:47;;;;;;;62.80;38.60;;;5.20;99.90;;;;;;5117829;27;20461;-73
2021/03/21 05:07:27;;;;;;;68.63;38.10;;;5.20;99.90;;;;;;5112644;27;20624;-75
2021/03/21 05:09:59;;;;;;;77.00;40.97;;;5.20;99.90;;;;;;5119573;27;20504;-76
2021/03/21 05:12:36;;;;;;;80.50;42.37;;;5.10;99.90;;;;;;5123011;27;20931;-76
2021/03/21 05:15:10;;;;;;;93.97;43.33;;;5.10;99.90;;;;;;5125009;27;20517;-75
2021/03/21 05:17:46;;;;;;;89.97;42.90;;;5.20;99.90;;;;;;5122560;27;20466;-76
2021/03/21 05:20:23;;;;;;;77.97;43.10;;;5.10;99.90;;;;;;5122310;27;20475;-77
2021/03/21 05:23:00;;;;;;;83.73;43.20;;;5.10;99.90;;;;;;5122862;27;20812;-74
2021/03/21 05:25:32;;;;;;;81.07;43.40;;;5.20;99.90;;;;;;5115190;27;20475;-75
2021/03/21 05:28:06;;;;;;;88.53;44.23;;;5.20;99.90;;;;;;5119171;27;21021;-76
2021/03/21 05:30:35;;;;;;;83.53;44.50;;;5.20;99.90;;;;;;5118064;27;20970;-76
2021/03/21 05:33:04;;;;;;;76.30;45.20;;;5.20;99.90;;;;;;5122415;27;20476;-77
2021/03/21 05:35:33;;;;;;;86.73;45.50;;;5.20;99.90;;;;;;5120134;27;20880;-75
2021/03/21 05:38:11;;;;;;;73.57;40.20;;;5.20;99.90;;;;;;5118888;27;20453;-75
2021/03/21 05:41:27;;;;;;;90.03;45.00;;;5.10;99.90;;;;;;5120956;27;20464;-75
2021/03/21 05:44:24;;;;;;;80.40;42.03;;;5.10;99.90;;;;;;5114720;27;20902;-78
2021/03/21 05:47:09;;;;;;;89.33;44.17;;;5.20;99.90;;;;;;5113581;27;20989;-76
2021/03/21 05:50:04;;;;;;;89.77;43.00;;;5.10;99.90;;;;;;5103808;27;20551;-76
2021/03/21 05:53:21;;;;;;;81.10;44.80;;;5.20;99.90;;;;;;5115537;27;20505;-75
2021/03/21 05:56:06;;;;;;;74.13;42.20;;;5.20;99.90;;;;;;5070641;27;20466;-76
2021/03/21 05:59:05;;;;;;;79.83;44.70;;;5.10;99.90;;;;;;5116226;27;20554;-76
2021/03/21 06:02:16;;;;;;;90.10;47.10;;;5.20;99.90;;;;;;5107428;27;20453;-77
2021/03/21 06:05:16;;;;;;;82.70;42.50;;;5.20;99.90;;;;;;5113422;27;20452;-74
2021/03/21 06:08:05;;;;;;;81.87;42.23;;;5.20;99.90;;;;;;5054239;28;20997;-76
2021/03/21 06:11:00;;;;;;;84.03;46.23;;;5.20;99.90;;;;;;5087317;28;20485;-77
2021/03/21 06:13:41;;;;;;;86.33;44.13;;;5.20;99.90;;;;;;5092300;28;20470;-75
2021/03/21 06:16:44;;;;;;;85.43;44.30;;;5.20;99.90;;;;;;5099398;28;20457;-75
2021/03/21 06:19:32;;;;;;;72.20;40.50;;;5.30;99.90;;;;;;5097541;28;20483;-77
2021/03/21 06:22:35;;;;;;;62.40;36.00;;;5.30;99.90;;;;;;5098980;28;20497;-77
2021/03/21 06:25:22;;;;;;;53.93;36.60;;;5.40;99.90;;;;;;5096497;28;20836;-76
2021/03/21 06:28:33;;;;;;;49.83;34.13;;;5.40;99.90;;;;;;5100098;28;21058;-76
2021/03/21 06:31:37;;;;;;;47.67;33.40;;;5.40;99.90;;;;;;5037000;28;20492;-76
2021/03/21 06:34:13;;;;;;;61.73;36.00;;;5.40;99.90;;;;;;5101032;28;20446;-77
2021/03/21 06:36:47;;;;;;;58.57;34.97;;;5.50;99.90;;;;;;5098995;28;20458;-74
2021/03/21 06:39:51;;;;;;;63.17;35.73;;;5.50;99.90;;;;;;5091408;28;20955;-76
2021/03/21 06:42:54;;;;;;;29.17;26.03;;;5.60;99.90;;;;;;5093274;28;20468;-75
2021/03/21 06:45:50;;;;;;;59.70;35.23;;;5.60;99.90;;;;;;5095418;28;21151;-76
2021/03/21 06:48:33;;;;;;;50.17;34.57;;;5.60;99.90;;;;;;5099886;28;20493;-76
2021/03/21 06:51:12;;;;;;;52.63;29.87;;;5.70;99.90;;;;;;5099936;28;20477;-74
2021/03/21 06:53:48;;;;;;;48.40;32.07;;;5.70;99.90;;;;;;5096165;28;20462;-77
2021/03/21 06:56:50;;;;;;;39.40;29.03;;;5.70;99.90;;;;;;5102110;28;20824;-77
2021/03/21 06:59:54;;;;;;;31.30;22.67;;;5.80;99.90;;;;;;5081350;28;20518;-76
2021/03/21 07:03:06;;;;;;;39.87;28.40;;;5.90;99.90;;;;;;5083880;28;20991;-75
2021/03/21 07:06:14;;;;;;;31.40;22.90;;;6.00;99.90;;;;;;5096428;28;20470;-77
2021/03/21 07:09:07;;;;;;;38.20;28.40;;;6.10;99.90;;;;;;5060847;27;20495;-77
2021/03/21 07:11:59;;;;;;;34.23;25.40;;;6.20;99.90;;;;;;5118426;27;20488;-77
2021/03/21 07:15:02;;;;;;;38.93;27.10;;;6.30;99.90;;;;;;5118818;27;20457;-75
2021/03/21 07:18:03;;;;;;;22.97;20.63;;;6.30;99.90;;;;;;5111644;27;20461;-76
2021/03/21 07:20:59;;;;;;;29.00;24.43;;;6.30;99.90;;;;;;5118548;27;21013;-77
2021/03/21 07:23:49;;;;;;;30.67;22.93;;;6.30;99.90;;;;;;5118171;27;20547;-75
2021/03/21 07:26:44;;;;;;;20.97;18.73;;;6.30;99.90;;;;;;5119070;27;20494;-75
2021/03/21 07:29:37;;;;;;;21.20;18.87;;;6.40;99.90;;;;;;5113239;27;21047;-75
2021/03/21 07:32:30;;;;;;;31.60;20.90;;;6.40;99.90;;;;;;5118332;28;20975;-76
2021/03/21 07:35:16;;;;;;;27.70;22.80;;;6.50;99.90;;;;;;5116927;28;20456;-76
2021/03/21 07:37:51;;;;;;;32.63;24.17;;;6.50;99.90;;;;;;5120613;28;20485;-74
2021/03/21 07:40:28;;;;;;;31.53;24.20;;;6.50;99.90;;;;;;5111200;28;20465;-75
2021/03/21 07:43:32;;;;;;;22.63;20.43;;;6.50;99.90;;;;;;5111697;28;20478;-76
2021/03/21 07:46:32;;;;;;;32.43;22.90;;;6.50;99.90;;;;;;5003840;28;20545;-75
2021/03/21 07:49:29;;;;;;;24.47;21.97;;;6.60;99.90;;;;;;5108399;28;20534;-77
2021/03/21 07:52:12;;;;;;;30.80;23.57;;;6.70;99.90;;;;;;5113107;28;20485;-77
2021/03/21 07:54:49;;;;;;;22.00;19.87;;;6.90;99.90;;;;;;5104912;28;20481;-77
2021/03/21 07:57:23;;;;;;;28.13;22.40;;;7.00;99.90;;;;;;5121985;28;20542;-76
2021/03/21 07:59:52;;;;;;;20.50;18.27;;;6.90;99.90;;;;;;5112689;28;20539;-76
2021/03/21 08:02:22;;;;;;;21.60;19.57;;;7.00;99.90;;;;;;5108858;28;20453;-75
2021/03/21 08:04:50;;;;;;;19.80;18.10;;;7.00;99.90;;;;;;5100936;28;20469;-73
2021/03/21 08:07:21;;;;;;;19.80;18.13;;;6.90;99.90;;;;;;5115907;28;20580;-73
2021/03/21 08:09:50;;;;;;;20.57;18.77;;;6.90;99.90;;;;;;5116636;28;20540;-76
2021/03/21 08:12:35;;;;;;;21.43;18.43;;;6.80;99.90;;;;;;5114411;28;20458;-76
2021/03/21 08:15:14;;;;;;;20.07;18.00;;;6.70;99.90;;;;;;5113216;28;20506;-75
2021/03/21 08:17:46;;;;;;;20.03;18.40;;;6.70;99.90;;;;;;5115567;28;20453;-77
2021/03/21 08:20:19;;;;;;;18.30;16.90;;;6.70;99.90;;;;;;5121602;27;20488;-76
2021/03/21 08:22:47;;;;;;;19.47;17.67;;;6.80;99.90;;;;;;5116148;27;20820;-75
2021/03/21 08:25:23;;;;;;;16.97;15.53;;;6.90;99.90;;;;;;5120518;27;20454;-77
2021/03/21 08:27:52;;;;;;;18.30;16.83;;;6.90;99.90;;;;;;5115382;27;20512;-76
2021/03/21 08:30:21;;;;;;;19.30;17.80;;;7.00;99.90;;;;;;5118835;27;20488;-73
2021/03/21 08:32:54;;;;;;;16.53;15.43;;;6.90;99.90;;;;;;5110215;27;20844;-77
2021/03/21 08:35:24;;;;;;;17.53;16.10;;;6.80;99.90;;;;;;5114780;27;20500;-72
2021/03/21 08:37:53;;;;;;;18.57;16.73;;;6.70;99.90;;;;;;5123527;27;20460;-73
2021/03/21 08:40:31;;;;;;;17.20;16.10;;;6.70;99.90;;;;;;5120139;27;20551;-75
2021/03/21 08:43:12;;;;;;;17.10;15.80;;;6.60;99.90;;;;;;5121233;27;20673;-73
2021/03/21 08:45:41;;;;;;;17.97;16.43;;;6.70;99.90;;;;;;5117930;27;20822;-74
2021/03/21 08:48:31;;;;;;;19.23;17.20;;;6.80;99.90;;;;;;5118956;27;20950;-73
2021/03/21 08:51:28;;;;;;;17.57;16.17;;;7.10;99.90;;;;;;5120251;27;20480;-73
2021/03/21 08:53:58;;;;;;;19.23;17.77;;;7.30;99.90;;;;;;5105716;27;20533;-73
2021/03/21 08:56:26;;;;;;;20.23;18.50;;;7.40;99.90;;;;;;5111279;27;20460;-76
2021/03/21 08:59:09;;;;;;;21.03;19.13;;;7.40;99.90;;;;;;5113005;27;21084;-74
2021/03/21 09:01:36;;;;;;;18.23;16.63;;;7.50;99.90;;;;;;5110776;27;20457;-73
2021/03/21 09:04:13;;;;;;;18.00;16.70;;;7.30;99.90;;;;;;5110633;27;20506;-73
2021/03/21 09:06:42;;;;;;;16.73;15.73;;;7.20;99.90;;;;;;5118972;27;20795;-73
2021/03/21 09:09:21;;;;;;;16.30;15.30;;;7.10;99.90;;;;;;5120154;27;20464;-76
2021/03/21 09:11:52;;;;;;;17.50;16.20;;;7.10;99.90;;;;;;5116642;27;20890;-74
2021/03/21 09:14:25;;;;;;;17.30;15.93;;;7.20;99.90;;;;;;5119438;27;20537;-76
2021/03/21 09:16:57;;;;;;;16.50;15.27;;;7.20;99.90;;;;;;5104348;27;21759;-72
2021/03/21 09:19:25;;;;;;;16.93;15.40;;;7.20;99.90;;;;;;5122716;27;20858;-75
2021/03/21 09:21:54;;;;;;;15.67;14.67;;;7.20;99.90;;;;;;5119086;27;20493;-74
2021/03/21 09:24:27;;;;;;;16.10;15.10;;;7.20;99.90;;;;;;5123815;27;20473;-74
2021/03/21 09:27:12;;;;;;;13.90;13.20;;;7.30;99.90;;;;;;5114719;27;20456;-75
2021/03/21 09:29:39;;;;;;;14.20;13.20;;;7.40;99.90;;;;;;5112162;27;20456;-73
2021/03/21 09:32:16;;;;;;;14.20;13.40;;;7.20;99.90;;;;;;5114460;27;20480;-72
2021/03/21 09:34:58;;;;;;;14.07;13.47;;;7.20;99.90;;;;;;5118620;27;20460;-74
2021/03/21 09:37:29;;;;;;;13.87;12.67;;;7.00;99.90;;;;;;5115825;27;20492;-75
2021/03/21 09:40:03;;;;;;;14.23;12.90;;;7.00;99.90;;;;;;5110336;27;20968;-76
2021/03/21 09:42:31;;;;;;;12.60;11.80;;;7.00;99.90;;;;;;5115718;27;20975;-76
2021/03/21 09:45:00;;;;;;;13.67;12.40;;;7.00;99.90;;;;;;5121502;27;20476;-75
2021/03/21 09:47:33;;;;;;;14.27;13.30;;;7.20;99.90;;;;;;5113400;27;20547;-74
2021/03/21 09:50:15;;;;;;;12.43;11.73;;;7.30;99.90;;;;;;5114383;27;20516;-75
2021/03/21 09:52:45;;;;;;;13.33;12.50;;;7.40;99.90;;;;;;5111313;27;20462;-75
2021/03/21 09:55:25;;;;;;;13.40;12.43;;;7.60;99.90;;;;;;5116290;27;20467;-77
2021/03/21 09:58:05;;;;;;;13.13;12.53;;;7.60;99.90;;;;;;5120776;27;20471;-72
2021/03/21 10:00:35;;;;;;;14.60;13.27;;;7.70;99.90;;;;;;5115263;27;20540;-76
2021/03/21 10:03:04;;;;;;;14.37;13.03;;;7.60;99.90;;;;;;5114757;27;20958;-74
2021/03/21 10:05:41;;;;;;;13.20;12.20;;;7.60;99.90;;;;;;5116310;27;20502;-77
2021/03/21 10:08:16;;;;;;;14.03;11.77;;;7.50;99.90;;;;;;5105992;27;20479;-74
2021/03/21 10:10:52;;;;;;;11.93;11.33;;;7.50;99.90;;;;;;5109109;27;20472;-72
2021/03/21 10:13:32;;;;;;;13.10;12.20;;;7.50;99.90;;;;;;5121887;27;20547;-74
2021/03/21 10:16:28;;;;;;;12.93;11.60;;;7.60;99.90;;;;;;5109825;27;20551;-74
2021/03/21 10:18:56;;;;;;;13.33;12.10;;;7.70;99.90;;;;;;5111003;27;20478;-73
2021/03/21 10:21:39;;;;;;;14.17;12.60;;;7.80;99.90;;;;;;5117796;27;20450;-74
2021/03/21 10:24:34;;;;;;;24.00;12.10;;;7.60;99.90;;;;;;5118424;27;20535;-73
2021/03/21 10:27:39;;;;;;;13.00;12.00;;;7.60;99.90;;;;;;5113019;27;20460;-75
2021/03/21 10:30:20;;;;;;;12.07;11.40;;;7.60;99.90;;;;;;5106458;27;20549;-76
2021/03/21 10:32:50;;;;;;;20.87;18.67;;;7.60;99.90;;;;;;5113233;27;20467;-75
2021/03/21 10:35:51;;;;;;;22.87;19.27;;;7.70;99.90;;;;;;5110981;27;20463;-73
2021/03/21 10:38:55;;;;;;;13.70;12.60;;;7.90;99.90;;;;;;5108900;27;20458;-74
2021/03/21 10:41:55;;;;;;;13.40;12.40;;;8.10;99.90;;;;;;5108705;27;20502;-75
2021/03/21 10:44:56;;;;;;;12.70;11.70;;;8.10;99.90;;;;;;5109804;27;20461;-75
2021/03/21 10:47:52;;;;;;;15.07;12.50;;;8.10;99.90;;;;;;5113266;27;21055;-72
2021/03/21 10:51:03;;;;;;;14.20;13.00;;;8.10;99.90;;;;;;5106429;27;20479;-76
2021/03/21 10:53:34;;;;;;;14.63;13.33;;;8.10;99.90;;;;;;5111547;27;20461;-74
2021/03/21 10:56:16;;;;;;;13.53;12.20;;;8.00;99.90;;;;;;5114475;27;20449;-74
2021/03/21 10:59:08;;;;;;;13.20;12.20;;;8.00;99.90;;;;;;5115810;27;20965;-74
2021/03/21 11:01:36;;;;;;;12.60;11.60;;;8.20;99.90;;;;;;5120034;27;20456;-73
2021/03/21 11:04:25;;;;;;;11.70;11.00;;;8.10;99.90;;;;;;5113159;27;20780;-73
2021/03/21 11:06:58;;;;;;;15.70;12.10;;;8.10;99.90;;;;;;5115030;27;20574;-73
2021/03/21 11:09:31;;;;;;;15.43;12.10;;;8.20;99.90;;;;;;5111754;27;20464;-73
2021/03/21 11:12:00;;;;;;;13.70;11.97;;;8.50;99.90;;;;;;5112809;27;21020;-74
2021/03/21 11:14:34;;;;;;;24.90;13.53;;;8.50;99.90;;;;;;5122482;27;20462;-72
2021/03/21 11:17:04;;;;;;;14.57;13.27;;;8.50;99.90;;;;;;5109603;27;20467;-74
2021/03/21 11:19:35;;;;;;;14.33;12.97;;;8.60;99.90;;;;;;5114077;27;20989;-74
2021/03/21 11:22:11;;;;;;;16.37;14.63;;;8.60;99.90;;;;;;5112305;27;20457;-73
2021/03/21 11:24:41;;;;;;;14.90;13.60;;;8.50;99.90;;;;;;5116521;27;21001;-76
2021/03/21 11:27:14;;;;;;;17.23;14.77;;;8.40;99.90;;;;;;5117290;27;20928;-74
2021/03/21 11:29:42;;;;;;;14.60;13.17;;;8.40;99.90;;;;;;5120652;27;20519;-73
2021/03/21 11:32:15;;;;;;;16.60;13.83;;;8.40;99.90;;;;;;5113607;27;21015;-74
2021/03/21 11:34:43;;;;;;;16.47;14.60;;;8.50;99.90;;;;;;5109825;28;20474;-73
2021/03/21 11:37:13;;;;;;;30.33;15.53;;;8.60;99.90;;;;;;5112321;28;20506;-76
2021/03/21 11:39:47;;;;;;;17.60;14.70;;;8.60;99.90;;;;;;5105433;28;20455;-74
2021/03/21 11:42:20;;;;;;;20.03;15.47;;;8.80;99.90;;;;;;5109800;28;20456;-73
2021/03/21 11:44:49;;;;;;;21.03;14.30;;;9.00;99.90;;;;;;5107097;28;20482;-76
2021/03/21 11:47:29;;;;;;;16.90;14.80;;;9.00;99.90;;;;;;5110349;28;20460;-74
2021/03/21 11:49:57;;;;;;;21.53;15.07;;;8.80;99.90;;;;;;5117368;28;20452;-75
2021/03/21 11:52:26;;;;;;;14.87;13.43;;;8.70;99.90;;;;;;5118388;28;20467;-75
2021/03/21 11:54:54;;;;;;;14.00;12.77;;;8.50;99.90;;;;;;5109877;27;20464;-76
2021/03/21 11:57:33;;;;;;;17.20;13.83;;;8.50;99.90;;;;;;5097644;27;20452;-76
2021/03/21 12:00:04;;;;;;;14.37;13.10;;;8.60;99.90;;;;;;5104655;27;20553;-73
2021/03/21 12:02:38;;;;;;;19.00;16.10;;;8.80;99.90;;;;;;5108601;27;20455;-74
2021/03/21 12:05:08;;;;;;;17.47;14.30;;;8.60;99.90;;;;;;5123492;27;20551;-73
2021/03/21 12:07:34;;;;;;;16.50;14.80;;;8.60;99.90;;;;;;5122975;27;20568;-73
2021/03/21 12:10:03;;;;;;;20.67;15.40;;;8.60;99.90;;;;;;5098770;27;20640;-75
2021/03/21 12:12:35;;;;;;;19.20;13.83;;;8.40;99.90;;;;;;5118383;27;20545;-78
2021/03/21 12:15:04;;;;;;;15.70;14.50;;;8.40;99.90;;;;;;5119613;27;20509;-73
2021/03/21 12:17:38;;;;;;;28.27;16.37;;;8.40;99.90;;;;;;5117787;27;20557;-74
2021/03/21 12:20:29;;;;;;;17.90;16.00;;;8.70;99.90;;;;;;5095819;28;20887;-75
2021/03/21 12:22:56;;;;;;;15.73;14.60;;;8.90;99.90;;;;;;5103334;27;20460;-72
2021/03/21 12:25:26;;;;;;;15.90;14.43;;;9.00;99.90;;;;;;5108034;27;20499;-75
2021/03/21 12:28:01;;;;;;;21.93;16.00;;;9.10;99.90;;;;;;5101893;27;20479;-72
2021/03/21 12:30:34;;;;;;;19.10;16.23;;;9.10;99.90;;;;;;5102282;27;20937;-74
2021/03/21 12:33:32;;;;;;;16.57;15.37;;;9.10;99.90;;;;;;5100783;27;20584;-70
2021/03/21 12:36:21;;;;;;;18.90;16.97;;;8.90;99.90;;;;;;5115458;27;20508;-72
2021/03/21 12:38:52;;;;;;;19.40;15.40;;;8.90;99.90;;;;;;5119048;27;20458;-74
2021/03/21 12:41:42;;;;;;;21.00;15.50;;;8.70;99.90;;;;;;5119666;27;20513;-71
2021/03/21 12:44:26;;;;;;;18.37;16.70;;;8.90;99.90;;;;;;5122556;27;20901;-72
2021/03/21 12:46:59;;;;;;;30.07;16.60;;;8.60;99.90;;;;;;5112799;27;20501;-74
2021/03/21 12:49:49;;;;;;;25.10;18.13;;;8.90;99.90;;;;;;5115359;27;20457;-74
2021/03/21 12:52:22;;;;;;;27.67;15.70;;;8.90;99.90;;;;;;5116828;27;20854;-72
2021/03/21 12:54:51;;;;;;;16.73;15.53;;;8.70;99.90;;;;;;5118322;27;20469;-71
2021/03/21 12:57:18;;;;;;;18.57;16.67;;;8.80;99.90;;;;;;5111082;27;21059;-74
2021/03/21 12:59:47;;;;;;;16.90;15.47;;;8.60;99.90;;;;;;5111468;27;20526;-73
2021/03/21 13:02:27;;;;;;;21.33;15.93;;;8.80;99.90;;;;;;5108524;27;20460;-72
2021/03/21 13:04:56;;;;;;;16.60;15.17;;;8.70;99.90;;;;;;5115792;27;20938;-73
2021/03/21 13:07:23;;;;;;;31.03;17.17;;;8.70;99.90;;;;;;5108170;27;20487;-71
2021/03/21 13:09:51;;;;;;;29.13;17.83;;;8.70;99.90;;;;;;5108901;27;20477;-73
2021/03/21 13:12:17;;;;;;;27.37;17.40;;;8.70;99.90;;;;;;5117811;27;20485;-72
2021/03/21 13:14:44;;;;;;;17.97;16.03;;;8.90;99.90;;;;;;5121371;27;20469;-73
2021/03/21 13:17:11;;;;;;;23.57;17.47;;;9.10;99.90;;;;;;5123061;27;20471;-73
2021/03/21 13:19:39;;;;;;;24.00;16.43;;;9.20;99.90;;;;;;5124172;27;21047;-73
2021/03/21 13:22:07;;;;;;;19.60;15.37;;;9.00;99.90;;;;;;5119811;27;20524;-71
2021/03/21 13:24:33;;;;;;;17.50;15.50;;;9.20;99.90;;;;;;5115454;27;20454;-73